Time;durP1;ratioP1;P1;durP2;ratioP2;P2;SDS_P1;SDS_P2;PMS_P1;PMS_P2;Temp;Humidity;BMP_temperature;BMP_pressure;BME280_temperature;BME280_humidity;BME280_pressure;Samples;Min_cycle;Max_cycle;Signal;HPM_P1;HPM_P2
2023/09/13 00:01:55;;;;;;;8.65;2.72;;;;;;;;;;5054970;28;20047;-65
2023/09/13 00:04:21;;;;;;;9.95;2.10;;;;;;;;;;5055252;28;20036;-64
2023/09/13 00:06:48;;;;;;;10.38;2.60;;;;;;;;;;5058617;28;20032;-64
2023/09/13 00:09:14;;;;;;;10.27;2.55;;;;;;;;;;5053616;28;20059;-64
2023/09/13 00:11:40;;;;;;;8.52;2.30;;;;;;;;;;5055396;28;21748;-64
2023/09/13 00:14:06;;;;;;;9.43;2.20;;;;;;;;;;5055600;28;20032;-64
2023/09/13 00:16:32;;;;;;;10.93;2.30;;;;;;;;;;5052976;28;20028;-65
2023/09/13 00:19:00;;;;;;;10.82;2.10;;;;;;;;;;5054750;28;20100;-64
2023/09/13 00:21:26;;;;;;;10.80;2.63;;;;;;;;;;5049023;28;20034;-64
2023/09/13 00:23:52;;;;;;;9.88;2.35;;;;;;;;;;5054946;28;20068;-64
2023/09/13 00:26:18;;;;;;;4.38;1.48;;;;;;;;;;5051803;28;20059;-66
2023/09/13 00:28:45;;;;;;;11.20;2.10;;;;;;;;;;5055421;28;20051;-64
2023/09/13 00:31:12;;;;;;;14.15;2.50;;;;;;;;;;5054226;28;20040;-64
2023/09/13 00:33:38;;;;;;;5.60;1.48;;;;;;;;;;5051917;28;20024;-64
2023/09/13 00:36:04;;;;;;;10.38;2.00;;;;;;;;;;5055197;28;20143;-65
2023/09/13 00:38:30;;;;;;;7.38;1.95;;;;;;;;;;5058458;28;20455;-64
2023/09/13 00:40:57;;;;;;;7.50;1.52;;;;;;;;;;5057881;28;20062;-64
2023/09/13 00:43:25;;;;;;;8.02;1.63;;;;;;;;;;5057569;28;20151;-64
2023/09/13 00:45:51;;;;;;;7.85;1.90;;;;;;;;;;5058971;28;20047;-64
2023/09/13 00:48:18;;;;;;;9.82;2.40;;;;;;;;;;5058253;28;20039;-65
2023/09/13 00:50:44;;;;;;;9.48;1.83;;;;;;;;;;5054390;28;20563;-64
2023/09/13 00:53:11;;;;;;;8.35;2.10;;;;;;;;;;5057592;28;21235;-65
2023/09/13 00:55:37;;;;;;;13.85;2.05;;;;;;;;;;5058959;28;20036;-65
2023/09/13 00:58:05;;;;;;;10.13;2.10;;;;;;;;;;5056577;28;20084;-65
2023/09/13 01:00:32;;;;;;;7.45;2.10;;;;;;;;;;5058270;28;20888;-65
2023/09/13 01:02:59;;;;;;;10.88;2.55;;;;;;;;;;5058532;28;20032;-65
2023/09/13 01:05:26;;;;;;;9.57;3.05;;;;;;;;;;5058678;28;20123;-65
2023/09/13 01:07:52;;;;;;;7.43;1.80;;;;;;;;;;5058573;28;21486;-65
2023/09/13 01:10:19;;;;;;;10.48;2.10;;;;;;;;;;5058290;28;20121;-64
2023/09/13 01:12:45;;;;;;;12.38;2.13;;;;;;;;;;5057378;28;20138;-65
2023/09/13 01:15:12;;;;;;;10.40;2.38;;;;;;;;;;5054824;28;20055;-65
2023/09/13 01:17:57;;;;;;;10.10;1.83;;;;;;;;;;5058303;28;20265;-64
2023/09/13 01:20:28;;;;;;;7.60;1.85;;;;;;;;;;5057781;28;20799;-64
2023/09/13 01:22:54;;;;;;;10.98;2.03;;;;;;;;;;5057786;28;20032;-64
2023/09/13 01:25:32;;;;;;;8.73;1.88;;;;;;;;;;5057488;28;20154;-64
2023/09/13 01:28:18;;;;;;;9.57;2.58;;;;;;;;;;5056697;28;20105;-65
2023/09/13 01:30:45;;;;;;;7.55;1.95;;;;;;;;;;5057226;28;20128;-64
2023/09/13 01:33:11;;;;;;;8.18;1.73;;;;;;;;;;5057985;28;20029;-64
2023/09/13 01:35:37;;;;;;;7.40;1.70;;;;;;;;;;5056672;28;20029;-64
2023/09/13 01:38:03;;;;;;;7.85;1.73;;;;;;;;;;5055655;28;20622;-64
2023/09/13 01:40:31;;;;;;;9.15;1.75;;;;;;;;;;5055164;28;20104;-64
2023/09/13 01:43:00;;;;;;;10.95;2.08;;;;;;;;;;5056432;28;20122;-65
2023/09/13 01:45:26;;;;;;;5.85;1.42;;;;;;;;;;5056103;28;20089;-64
2023/09/13 01:47:53;;;;;;;10.27;2.20;;;;;;;;;;5056141;28;20094;-64
2023/09/13 01:50:19;;;;;;;6.93;1.70;;;;;;;;;;5057723;28;20120;-64
2023/09/13 01:52:45;;;;;;;7.47;1.55;;;;;;;;;;5056409;28;20060;-64
2023/09/13 01:55:12;;;;;;;6.82;1.70;;;;;;;;;;5057243;28;20035;-64
2023/09/13 01:57:39;;;;;;;7.15;1.67;;;;;;;;;;5057439;28;21610;-64
2023/09/13 02:00:06;;;;;;;8.13;1.35;;;;;;;;;;5057245;28;20032;-64
2023/09/13 02:02:32;;;;;;;5.45;1.40;;;;;;;;;;5057334;28;20043;-64
2023/09/13 02:04:58;;;;;;;6.93;1.48;;;;;;;;;;5057437;28;20103;-64
2023/09/13 02:07:24;;;;;;;6.03;1.80;;;;;;;;;;5057630;28;20353;-64
2023/09/13 02:09:52;;;;;;;6.82;1.83;;;;;;;;;;5056459;28;20387;-64
2023/09/13 02:12:18;;;;;;;7.32;2.10;;;;;;;;;;5056709;28;20081;-64
2023/09/13 02:14:44;;;;;;;7.15;1.77;;;;;;;;;;5056639;28;20039;-65
2023/09/13 02:17:10;;;;;;;10.68;2.10;;;;;;;;;;5056831;28;20618;-64
2023/09/13 02:19:36;;;;;;;8.98;2.72;;;;;;;;;;5056583;28;20032;-64
2023/09/13 02:22:02;;;;;;;26.70;2.88;;;;;;;;;;5057128;28;20043;-64
2023/09/13 02:24:28;;;;;;;11.15;1.77;;;;;;;;;;5057357;28;20706;-64
2023/09/13 02:26:57;;;;;;;9.70;1.45;;;;;;;;;;5055073;28;21419;-64
2023/09/13 02:29:24;;;;;;;11.20;1.98;;;;;;;;;;5057138;28;20043;-64
2023/09/13 02:31:50;;;;;;;10.85;2.10;;;;;;;;;;5057048;28;20039;-64
2023/09/13 02:34:17;;;;;;;6.72;1.90;;;;;;;;;;5057453;28;20020;-64
2023/09/13 02:36:45;;;;;;;5.60;1.35;;;;;;;;;;5056078;28;20025;-64
2023/09/13 02:39:30;;;;;;;7.53;1.88;;;;;;;;;;5056703;28;20606;-64
2023/09/13 02:41:56;;;;;;;7.43;1.50;;;;;;;;;;5055441;28;20024;-64
2023/09/13 02:44:22;;;;;;;6.68;1.65;;;;;;;;;;5056173;28;20387;-64
2023/09/13 02:46:48;;;;;;;7.35;1.85;;;;;;;;;;5055959;28;20048;-64
2023/09/13 02:49:14;;;;;;;4.57;1.50;;;;;;;;;;5056489;28;20134;-64
2023/09/13 02:51:40;;;;;;;7.65;1.42;;;;;;;;;;5053982;28;20094;-64
2023/09/13 02:54:06;;;;;;;12.85;2.20;;;;;;;;;;5056194;28;20610;-64
2023/09/13 02:56:32;;;;;;;9.82;1.90;;;;;;;;;;5056165;28;20374;-65
2023/09/13 02:58:59;;;;;;;9.70;1.95;;;;;;;;;;5055901;28;20055;-64
2023/09/13 03:01:25;;;;;;;7.93;1.88;;;;;;;;;;5055410;28;20141;-64
2023/09/13 03:03:51;;;;;;;5.63;1.80;;;;;;;;;;5055867;28;20777;-64
2023/09/13 03:06:17;;;;;;;6.78;1.60;;;;;;;;;;5054927;28;20118;-64
2023/09/13 03:08:43;;;;;;;5.70;1.88;;;;;;;;;;5056383;28;20024;-64
2023/09/13 03:11:10;;;;;;;6.28;1.75;;;;;;;;;;5055513;28;20040;-64
2023/09/13 03:13:37;;;;;;;6.38;1.63;;;;;;;;;;5056029;28;20036;-64
2023/09/13 03:16:10;;;;;;;8.15;1.77;;;;;;;;;;5055669;28;20535;-64
2023/09/13 03:18:36;;;;;;;8.35;1.50;;;;;;;;;;5055547;28;20035;-64
2023/09/13 03:21:02;;;;;;;11.90;1.90;;;;;;;;;;5055860;28;20028;-64
2023/09/13 03:23:30;;;;;;;6.30;1.40;;;;;;;;;;5054720;28;20126;-64
2023/09/13 03:25:56;;;;;;;8.60;1.63;;;;;;;;;;5055755;28;20777;-65
2023/09/13 03:28:22;;;;;;;9.63;1.75;;;;;;;;;;5054928;28;20079;-64
2023/09/13 03:30:48;;;;;;;9.30;1.40;;;;;;;;;;5056047;28;20040;-64
2023/09/13 03:33:14;;;;;;;9.20;1.70;;;;;;;;;;5055584;28;20113;-64
2023/09/13 03:35:40;;;;;;;6.05;1.67;;;;;;;;;;5055179;28;20119;-64
2023/09/13 03:38:06;;;;;;;7.43;1.30;;;;;;;;;;5055595;28;20047;-65
2023/09/13 03:40:32;;;;;;;5.38;1.30;;;;;;;;;;5055030;28;20110;-64
2023/09/13 03:42:58;;;;;;;5.15;1.50;;;;;;;;;;5054479;28;20136;-64
2023/09/13 03:45:24;;;;;;;8.98;1.95;;;;;;;;;;5052870;28;20196;-64
2023/09/13 03:47:50;;;;;;;9.52;1.38;;;;;;;;;;5053268;28;20050;-65
2023/09/13 03:50:16;;;;;;;7.15;1.55;;;;;;;;;;5055226;28;20924;-64
2023/09/13 03:52:42;;;;;;;8.18;1.45;;;;;;;;;;5052729;28;20603;-64
2023/09/13 03:55:09;;;;;;;7.32;1.30;;;;;;;;;;5053934;28;21765;-64
2023/09/13 03:57:35;;;;;;;8.05;1.88;;;;;;;;;;5054788;28;20040;-64
2023/09/13 04:00:01;;;;;;;8.07;1.80;;;;;;;;;;5056311;28;20124;-64
2023/09/13 04:02:27;;;;;;;7.97;1.48;;;;;;;;;;5055466;28;20038;-64
2023/09/13 04:04:54;;;;;;;9.20;2.00;;;;;;;;;;5055933;28;20115;-64
2023/09/13 04:07:20;;;;;;;4.53;1.20;;;;;;;;;;5055325;28;20036;-64
2023/09/13 04:09:46;;;;;;;6.55;1.35;;;;;;;;;;5055115;28;20032;-64
2023/09/13 04:12:15;;;;;;;12.38;2.10;;;;;;;;;;5057160;28;20502;-64
2023/09/13 04:14:41;;;;;;;8.55;2.15;;;;;;;;;;5058944;28;20626;-64
2023/09/13 04:17:08;;;;;;;10.50;1.50;;;;;;;;;;5059758;28;20113;-64
2023/09/13 04:19:34;;;;;;;7.00;1.88;;;;;;;;;;5060090;28;20491;-64
2023/09/13 04:22:00;;;;;;;7.75;1.80;;;;;;;;;;5058225;28;20424;-63
2023/09/13 04:24:26;;;;;;;7.78;1.77;;;;;;;;;;5059885;28;20032;-64
2023/09/13 04:26:52;;;;;;;7.72;1.80;;;;;;;;;;5057673;28;20043;-63
2023/09/13 04:29:18;;;;;;;12.32;2.10;;;;;;;;;;5058795;28;20823;-63
2023/09/13 04:31:44;;;;;;;9.85;1.83;;;;;;;;;;5059059;28;20734;-63
2023/09/13 04:34:10;;;;;;;10.20;2.25;;;;;;;;;;5058732;28;20633;-63
2023/09/13 04:36:36;;;;;;;10.10;2.10;;;;;;;;;;5058601;28;20039;-63
2023/09/13 04:39:02;;;;;;;8.88;2.92;;;;;;;;;;5058938;28;20120;-63
2023/09/13 04:41:28;;;;;;;12.50;2.67;;;;;;;;;;5058341;28;20558;-63
2023/09/13 04:43:54;;;;;;;9.00;2.13;;;;;;;;;;5058532;28;20782;-63
2023/09/13 04:46:20;;;;;;;6.95;1.85;;;;;;;;;;5057969;28;20043;-63
2023/09/13 04:48:46;;;;;;;8.18;1.92;;;;;;;;;;5058828;28;20808;-63
2023/09/13 04:51:12;;;;;;;9.25;1.98;;;;;;;;;;5057878;28;20016;-63
2023/09/13 04:53:39;;;;;;;8.57;1.98;;;;;;;;;;5058342;28;20036;-63
2023/09/13 04:56:05;;;;;;;8.02;1.73;;;;;;;;;;5058340;28;20028;-63
2023/09/13 04:58:31;;;;;;;8.38;2.17;;;;;;;;;;5058173;28;20847;-63
2023/09/13 05:00:57;;;;;;;10.40;2.20;;;;;;;;;;5058222;28;20634;-63
2023/09/13 05:03:23;;;;;;;10.07;2.10;;;;;;;;;;5058451;28;21068;-63
2023/09/13 05:05:49;;;;;;;7.65;2.15;;;;;;;;;;5057978;28;20039;-63
2023/09/13 05:08:15;;;;;;;6.38;1.75;;;;;;;;;;5057453;28;20074;-63
2023/09/13 05:10:43;;;;;;;9.77;2.13;;;;;;;;;;5057221;28;20032;-63
2023/09/13 05:13:09;;;;;;;9.07;2.60;;;;;;;;;;5058329;28;20065;-63
2023/09/13 05:15:42;;;;;;;8.52;1.95;;;;;;;;;;5058005;28;20704;-63
2023/09/13 05:18:08;;;;;;;9.70;2.30;;;;;;;;;;5057427;28;20746;-63
2023/09/13 05:20:34;;;;;;;9.88;1.83;;;;;;;;;;5056495;28;20631;-62
2023/09/13 05:23:00;;;;;;;10.30;2.47;;;;;;;;;;5057495;28;20164;-62
2023/09/13 05:25:26;;;;;;;5.32;1.95;;;;;;;;;;5057204;28;20586;-63
2023/09/13 05:27:52;;;;;;;8.90;2.13;;;;;;;;;;5058298;28;21521;-63
2023/09/13 05:30:18;;;;;;;8.65;2.03;;;;;;;;;;5057392;28;20046;-62
2023/09/13 05:32:44;;;;;;;9.40;2.20;;;;;;;;;;5057639;28;20038;-63
2023/09/13 05:35:10;;;;;;;11.07;1.80;;;;;;;;;;5057766;28;20032;-63
2023/09/13 05:37:36;;;;;;;6.30;1.83;;;;;;;;;;5058245;28;20375;-63
2023/09/13 05:40:06;;;;;;;8.70;1.90;;;;;;;;;;5058023;28;20506;-63
2023/09/13 05:42:34;;;;;;;7.88;2.33;;;;;;;;;;5055057;28;20032;-63
2023/09/13 05:45:00;;;;;;;11.45;2.03;;;;;;;;;;5056367;28;21051;-63
2023/09/13 05:47:26;;;;;;;9.05;1.83;;;;;;;;;;5056478;28;20142;-63
2023/09/13 05:49:52;;;;;;;12.38;2.58;;;;;;;;;;5057017;28;20055;-63
2023/09/13 05:52:18;;;;;;;10.23;2.17;;;;;;;;;;5055238;28;20126;-63
2023/09/13 05:54:44;;;;;;;8.25;1.85;;;;;;;;;;5054483;28;20138;-63
2023/09/13 05:57:10;;;;;;;13.35;3.10;;;;;;;;;;5056203;28;20056;-63
2023/09/13 05:59:39;;;;;;;10.90;2.45;;;;;;;;;;5054599;28;21764;-63
2023/09/13 06:02:06;;;;;;;8.77;2.20;;;;;;;;;;5054667;28;20040;-63
2023/09/13 06:04:32;;;;;;;11.95;3.28;;;;;;;;;;5055969;28;20124;-63
2023/09/13 06:06:58;;;;;;;12.00;2.90;;;;;;;;;;5057206;28;20113;-63
2023/09/13 06:09:24;;;;;;;12.27;2.92;;;;;;;;;;5056914;28;21716;-62
2023/09/13 06:11:50;;;;;;;13.23;3.28;;;;;;;;;;5056974;28;20441;-62
2023/09/13 06:14:18;;;;;;;11.20;2.90;;;;;;;;;;5055549;28;20063;-62
2023/09/13 06:16:44;;;;;;;12.27;3.15;;;;;;;;;;5056864;28;20028;-62
2023/09/13 06:19:10;;;;;;;14.52;3.80;;;;;;;;;;5056881;28;20024;-62
2023/09/13 06:21:36;;;;;;;15.02;3.22;;;;;;;;;;5054913;28;20062;-62
2023/09/13 06:24:02;;;;;;;13.70;3.03;;;;;;;;;;5056859;28;20169;-62
2023/09/13 06:26:28;;;;;;;12.73;3.30;;;;;;;;;;5057183;28;20111;-66
2023/09/13 06:28:54;;;;;;;16.85;4.43;;;;;;;;;;5056158;28;20598;-67
2023/09/13 06:31:21;;;;;;;15.73;3.28;;;;;;;;;;5056694;28;20568;-67
2023/09/13 06:33:49;;;;;;;12.88;3.25;;;;;;;;;;5054590;28;20032;-66
2023/09/13 06:36:15;;;;;;;13.68;3.50;;;;;;;;;;5053774;28;20110;-67
2023/09/13 06:38:41;;;;;;;11.82;2.85;;;;;;;;;;5056091;28;20028;-67
2023/09/13 06:41:08;;;;;;;13.02;3.13;;;;;;;;;;5054530;28;21528;-67
2023/09/13 06:43:36;;;;;;;10.15;2.50;;;;;;;;;;5055400;28;20047;-67
2023/09/13 06:46:02;;;;;;;11.00;3.03;;;;;;;;;;5055829;28;20123;-67
2023/09/13 06:48:28;;;;;;;11.98;2.97;;;;;;;;;;5054708;28;20044;-66
2023/09/13 06:50:55;;;;;;;14.80;3.88;;;;;;;;;;5054227;28;20032;-67
2023/09/13 06:53:21;;;;;;;11.20;2.70;;;;;;;;;;5055653;28;20047;-67
2023/09/13 06:55:47;;;;;;;18.10;3.40;;;;;;;;;;5055100;28;20047;-66
2023/09/13 06:58:13;;;;;;;9.70;2.42;;;;;;;;;;5055070;28;20032;-67
2023/09/13 07:00:41;;;;;;;16.25;2.47;;;;;;;;;;5055307;28;20043;-67
2023/09/13 07:03:08;;;;;;;12.23;2.70;;;;;;;;;;5053475;28;20456;-67
2023/09/13 07:05:34;;;;;;;9.05;2.10;;;;;;;;;;5055286;28;20044;-67
2023/09/13 07:08:00;;;;;;;11.27;2.60;;;;;;;;;;5055683;28;20068;-67
2023/09/13 07:10:29;;;;;;;7.95;1.98;;;;;;;;;;5054358;28;20039;-67
2023/09/13 07:12:55;;;;;;;10.23;2.60;;;;;;;;;;5051178;28;20036;-67
2023/09/13 07:15:21;;;;;;;8.85;1.90;;;;;;;;;;5054533;28;20036;-66
2023/09/13 07:17:47;;;;;;;8.85;1.98;;;;;;;;;;5053049;28;21043;-67
2023/09/13 07:20:13;;;;;;;9.30;2.40;;;;;;;;;;5055231;28;20047;-67
2023/09/13 07:22:40;;;;;;;8.80;2.25;;;;;;;;;;5054495;28;20044;-67
2023/09/13 07:25:07;;;;;;;10.40;2.22;;;;;;;;;;5054480;28;20082;-67
2023/09/13 07:27:33;;;;;;;11.07;2.13;;;;;;;;;;5055569;28;20109;-67
2023/09/13 07:29:59;;;;;;;10.00;2.20;;;;;;;;;;5055821;28;20032;-67
2023/09/13 07:32:25;;;;;;;7.97;2.05;;;;;;;;;;5054922;28;20040;-67
2023/09/13 07:34:51;;;;;;;9.77;2.33;;;;;;;;;;5054273;28;20034;-67
2023/09/13 07:37:17;;;;;;;9.52;1.95;;;;;;;;;;5053989;28;20056;-67
2023/09/13 07:39:43;;;;;;;10.27;2.10;;;;;;;;;;5053729;28;20020;-67
2023/09/13 07:42:11;;;;;;;6.90;2.13;;;;;;;;;;5051938;28;20632;-67
2023/09/13 07:44:37;;;;;;;8.02;2.30;;;;;;;;;;5052470;28;20044;-67
2023/09/13 07:47:03;;;;;;;10.32;2.55;;;;;;;;;;5054610;28;20089;-68
2023/09/13 07:49:29;;;;;;;7.97;1.90;;;;;;;;;;5054938;28;20043;-68
2023/09/13 07:51:55;;;;;;;9.55;2.30;;;;;;;;;;5055062;28;20067;-67
2023/09/13 07:54:21;;;;;;;9.45;2.60;;;;;;;;;;5061391;28;20072;-67
2023/09/13 07:56:47;;;;;;;11.35;2.45;;;;;;;;;;5054147;28;20039;-67
2023/09/13 07:59:15;;;;;;;9.40;2.30;;;;;;;;;;5053965;28;20120;-69
2023/09/13 08:01:41;;;;;;;10.52;2.28;;;;;;;;;;5053056;28;20032;-67
2023/09/13 08:04:07;;;;;;;7.90;2.60;;;;;;;;;;5052948;28;20699;-68
2023/09/13 08:06:33;;;;;;;18.30;3.30;;;;;;;;;;5054258;28;20079;-67
2023/09/13 08:08:59;;;;;;;10.73;2.42;;;;;;;;;;5052913;28;20030;-67
2023/09/13 08:11:27;;;;;;;8.65;2.08;;;;;;;;;;5053411;28;20020;-67
2023/09/13 08:13:53;;;;;;;13.85;2.88;;;;;;;;;;5054694;28;20429;-67
2023/09/13 08:16:20;;;;;;;9.80;2.50;;;;;;;;;;5055557;28;20123;-67
2023/09/13 08:18:46;;;;;;;7.97;2.00;;;;;;;;;;5056437;28;20028;-67
2023/09/13 08:21:12;;;;;;;6.90;1.80;;;;;;;;;;5056639;28;20475;-67
2023/09/13 08:23:38;;;;;;;7.03;1.83;;;;;;;;;;5054653;28;20044;-67
2023/09/13 08:26:04;;;;;;;11.80;2.30;;;;;;;;;;5052137;28;20036;-67
2023/09/13 08:28:30;;;;;;;8.50;2.35;;;;;;;;;;5054870;28;20782;-67
2023/09/13 08:30:56;;;;;;;11.85;2.33;;;;;;;;;;5056376;28;20033;-67
2023/09/13 08:33:22;;;;;;;9.75;3.08;;;;;;;;;;5055610;28;20094;-67
2023/09/13 08:35:49;;;;;;;8.85;2.20;;;;;;;;;;5056167;28;20107;-67
2023/09/13 08:38:15;;;;;;;8.65;2.25;;;;;;;;;;5056448;28;20034;-67
2023/09/13 08:40:46;;;;;;;10.98;2.72;;;;;;;;;;5055863;28;20025;-67
2023/09/13 08:43:12;;;;;;;12.52;2.00;;;;;;;;;;5056347;28;20032;-67
2023/09/13 08:45:39;;;;;;;9.52;2.20;;;;;;;;;;5057181;28;20055;-67
2023/09/13 08:48:09;;;;;;;10.52;2.30;;;;;;;;;;5057179;28;20032;-67
2023/09/13 08:50:36;;;;;;;10.90;2.30;;;;;;;;;;5054324;28;20050;-67
2023/09/13 08:53:03;;;;;;;10.38;2.17;;;;;;;;;;5052271;28;20047;-67
2023/09/13 08:55:33;;;;;;;10.95;2.20;;;;;;;;;;5052741;28;20052;-69
2023/09/13 08:58:05;;;;;;;9.20;2.30;;;;;;;;;;5057447;28;20039;-67
2023/09/13 09:00:34;;;;;;;8.45;1.58;;;;;;;;;;5057547;28;20038;-67
2023/09/13 09:03:02;;;;;;;11.18;2.28;;;;;;;;;;5058726;28;20039;-67
2023/09/13 09:05:30;;;;;;;10.02;2.67;;;;;;;;;;5057539;28;21121;-67
2023/09/13 09:07:57;;;;;;;10.30;2.60;;;;;;;;;;5057418;28;20127;-67
2023/09/13 09:10:24;;;;;;;10.80;2.30;;;;;;;;;;5057010;28;20086;-67
2023/09/13 09:12:51;;;;;;;9.95;2.45;;;;;;;;;;5055360;28;20032;-67
2023/09/13 09:15:18;;;;;;;10.32;2.65;;;;;;;;;;5057996;28;20210;-67
2023/09/13 09:17:45;;;;;;;10.05;2.22;;;;;;;;;;5057511;28;20024;-67
2023/09/13 09:20:11;;;;;;;10.95;3.20;;;;;;;;;;5055736;28;22031;-67
2023/09/13 09:22:37;;;;;;;9.32;3.15;;;;;;;;;;5055984;28;20666;-68
2023/09/13 09:25:09;;;;;;;11.48;3.25;;;;;;;;;;5050354;28;20036;-67
2023/09/13 09:27:37;;;;;;;15.38;2.92;;;;;;;;;;5057881;28;20053;-67
2023/09/13 09:30:03;;;;;;;10.57;2.78;;;;;;;;;;5057491;28;20036;-67
2023/09/13 09:32:33;;;;;;;11.15;3.38;;;;;;;;;;5057664;28;20035;-67
2023/09/13 09:34:59;;;;;;;12.65;2.97;;;;;;;;;;5052492;28;20036;-67
2023/09/13 09:37:29;;;;;;;9.93;2.53;;;;;;;;;;5057791;28;20036;-67
2023/09/13 09:39:56;;;;;;;9.07;2.25;;;;;;;;;;5055001;28;20024;-67
2023/09/13 09:42:22;;;;;;;7.13;2.40;;;;;;;;;;5057543;28;20109;-67
2023/09/13 09:44:48;;;;;;;8.85;2.95;;;;;;;;;;5056692;28;20044;-67
2023/09/13 09:47:15;;;;;;;9.90;2.50;;;;;;;;;;5057232;28;20485;-67
2023/09/13 09:49:43;;;;;;;9.15;2.55;;;;;;;;;;5058141;28;20063;-68
2023/09/13 09:52:10;;;;;;;8.15;2.60;;;;;;;;;;5056296;28;20040;-68
2023/09/13 09:54:40;;;;;;;7.90;2.15;;;;;;;;;;5057294;28;20077;-67
2023/09/13 09:57:06;;;;;;;7.25;2.67;;;;;;;;;;5057821;28;20040;-68
2023/09/13 09:59:37;;;;;;;5.25;2.13;;;;;;;;;;5057318;28;20028;-68
2023/09/13 10:02:04;;;;;;;7.63;2.80;;;;;;;;;;5056375;28;20059;-67
2023/09/13 10:04:30;;;;;;;6.03;2.20;;;;;;;;;;5056885;28;20170;-67
2023/09/13 10:07:03;;;;;;;7.22;2.58;;;;;;;;;;5056862;28;20083;-67
2023/09/13 10:09:39;;;;;;;7.07;2.75;;;;;;;;;;5055745;28;20040;-67
2023/09/13 10:12:07;;;;;;;6.88;2.20;;;;;;;;;;5054440;28;20036;-67
2023/09/13 10:14:33;;;;;;;6.82;2.15;;;;;;;;;;5054145;28;20135;-67
2023/09/13 10:17:00;;;;;;;7.53;2.70;;;;;;;;;;5055892;28;20567;-67
2023/09/13 10:19:29;;;;;;;6.53;2.65;;;;;;;;;;5056095;28;20032;-67
2023/09/13 10:21:56;;;;;;;6.60;2.42;;;;;;;;;;5056464;28;20036;-67
2023/09/13 10:24:28;;;;;;;7.63;2.35;;;;;;;;;;5056741;28;20064;-68
2023/09/13 10:26:55;;;;;;;7.43;2.60;;;;;;;;;;5056904;28;20032;-67
2023/09/13 10:29:47;;;;;;;6.97;2.88;;;;;;;;;;5057386;28;20032;-67
2023/09/13 10:32:15;;;;;;;6.80;2.90;;;;;;;;;;5043710;28;20044;-67
2023/09/13 10:34:49;;;;;;;7.20;2.33;;;;;;;;;;5056777;28;20494;-67
2023/09/13 10:37:39;;;;;;;6.57;2.72;;;;;;;;;;5057652;28;20050;-67
2023/09/13 10:40:10;;;;;;;9.85;2.95;;;;;;;;;;5057443;28;20163;-67
2023/09/13 10:42:39;;;;;;;7.13;2.33;;;;;;;;;;5056319;28;20424;-67
2023/09/13 10:45:06;;;;;;;9.15;2.80;;;;;;;;;;5056918;28;20050;-68
2023/09/13 10:47:33;;;;;;;7.25;2.45;;;;;;;;;;5056942;28;20040;-68
2023/09/13 10:50:00;;;;;;;9.18;2.40;;;;;;;;;;5057364;28;20075;-68
2023/09/13 10:52:26;;;;;;;8.48;2.33;;;;;;;;;;5056797;28;20390;-67
2023/09/13 10:54:53;;;;;;;5.32;2.05;;;;;;;;;;5056465;28;20032;-67
2023/09/13 10:57:20;;;;;;;7.78;2.10;;;;;;;;;;5057276;28;20040;-67
2023/09/13 10:59:46;;;;;;;5.05;1.80;;;;;;;;;;5055927;28;20032;-67
2023/09/13 11:02:12;;;;;;;5.63;1.75;;;;;;;;;;5054494;28;20047;-67
2023/09/13 11:04:38;;;;;;;7.50;2.17;;;;;;;;;;5056282;28;20052;-67
2023/09/13 11:07:05;;;;;;;7.43;2.75;;;;;;;;;;5056114;28;20032;-68
2023/09/13 11:09:31;;;;;;;4.93;1.95;;;;;;;;;;5055766;28;20035;-67
2023/09/13 11:11:58;;;;;;;6.97;2.10;;;;;;;;;;5054849;28;20040;-67
2023/09/13 11:14:25;;;;;;;10.00;2.40;;;;;;;;;;5055792;28;20562;-67
2023/09/13 11:16:52;;;;;;;6.88;2.17;;;;;;;;;;5057994;28;20029;-68
2023/09/13 11:19:18;;;;;;;6.45;1.67;;;;;;;;;;5055731;28;20516;-68
2023/09/13 11:21:47;;;;;;;6.90;1.90;;;;;;;;;;5056083;28;20466;-68
2023/09/13 11:24:13;;;;;;;6.85;1.80;;;;;;;;;;5055445;28;20028;-68
2023/09/13 11:26:48;;;;;;;7.43;1.88;;;;;;;;;;5056141;28;20085;-68
2023/09/13 11:29:24;;;;;;;5.97;1.38;;;;;;;;;;5056940;28;20031;-68
2023/09/13 11:32:20;;;;;;;5.95;1.48;;;;;;;;;;5055327;28;20550;-68
2023/09/13 11:34:53;;;;;;;5.90;1.83;;;;;;;;;;5055548;28;20135;-67
2023/09/13 11:37:19;;;;;;;7.45;2.30;;;;;;;;;;5055782;28;20023;-68
2023/09/13 11:39:52;;;;;;;7.53;1.58;;;;;;;;;;5056115;28;20462;-68
2023/09/13 11:42:24;;;;;;;;;;;;;;;;;;5055028;28;20740;-68
2023/09/13 11:44:54;;;;;;;9.88;1.80;;;;;;;;;;5051831;28;21278;-68
2023/09/13 11:47:20;;;;;;;5.13;1.50;;;;;;;;;;5054126;28;20035;-68
2023/09/13 11:49:46;;;;;;;7.35;1.50;;;;;;;;;;5054734;28;20032;-68
2023/09/13 11:52:12;;;;;;;5.35;1.75;;;;;;;;;;5054419;28;20062;-68
2023/09/13 11:54:54;;;;;;;8.45;1.55;;;;;;;;;;5053720;28;20036;-67
2023/09/13 11:57:24;;;;;;;7.30;1.80;;;;;;;;;;5053344;28;20535;-68
2023/09/13 11:59:53;;;;;;;7.13;1.58;;;;;;;;;;5054479;28;20647;-68
2023/09/13 12:02:20;;;;;;;7.35;1.33;;;;;;;;;;5054465;28;20033;-68
2023/09/13 12:04:46;;;;;;;7.40;1.60;;;;;;;;;;5054528;28;20028;-68
2023/09/13 12:07:16;;;;;;;6.88;1.52;;;;;;;;;;5054692;28;20036;-68
2023/09/13 12:09:53;;;;;;;7.68;1.48;;;;;;;;;;5054474;28;20541;-68
2023/09/13 12:12:20;;;;;;;7.35;1.67;;;;;;;;;;5053410;28;20483;-67
2023/09/13 12:14:46;;;;;;;5.93;1.63;;;;;;;;;;5054372;28;20028;-68
2023/09/13 12:17:12;;;;;;;4.90;1.35;;;;;;;;;;5053760;28;20033;-68
2023/09/13 12:19:38;;;;;;;7.25;1.67;;;;;;;;;;5050203;28;20051;-68
2023/09/13 12:22:04;;;;;;;6.80;1.52;;;;;;;;;;5050735;28;20039;-68
2023/09/13 12:24:31;;;;;;;8.27;1.88;;;;;;;;;;5050701;28;20053;-68
2023/09/13 12:26:57;;;;;;;6.97;1.77;;;;;;;;;;5052810;28;20109;-68
2023/09/13 12:29:23;;;;;;;7.07;2.00;;;;;;;;;;5051743;28;20110;-68
2023/09/13 12:31:57;;;;;;;8.30;1.50;;;;;;;;;;5052710;28;20040;-68
2023/09/13 12:34:23;;;;;;;10.32;1.85;;;;;;;;;;5058556;28;20038;-68
2023/09/13 12:36:50;;;;;;;8.52;1.77;;;;;;;;;;5057603;28;20036;-68
2023/09/13 12:39:16;;;;;;;6.70;1.60;;;;;;;;;;5057451;28;20025;-68
2023/09/13 12:41:42;;;;;;;7.60;1.95;;;;;;;;;;5057513;28;20106;-68
2023/09/13 12:44:10;;;;;;;5.75;1.67;;;;;;;;;;5055844;28;20032;-68
2023/09/13 12:46:39;;;;;;;8.82;1.80;;;;;;;;;;5056874;28;20024;-68
2023/09/13 12:49:07;;;;;;;6.68;1.83;;;;;;;;;;5057903;28;20119;-68
2023/09/13 12:51:34;;;;;;;10.40;2.17;;;;;;;;;;5054346;28;21694;-68
2023/09/13 12:54:00;;;;;;;8.95;1.83;;;;;;;;;;5057861;28;20490;-68
2023/09/13 12:56:26;;;;;;;11.73;2.13;;;;;;;;;;5053507;28;20117;-68
2023/09/13 12:58:53;;;;;;;10.25;1.88;;;;;;;;;;5053030;28;20028;-68
2023/09/13 13:01:20;;;;;;;7.32;2.05;;;;;;;;;;5056898;28;20028;-68
2023/09/13 13:03:55;;;;;;;9.23;1.85;;;;;;;;;;5058419;28;20085;-68
2023/09/13 13:06:21;;;;;;;7.22;1.80;;;;;;;;;;5058568;28;20035;-68
2023/09/13 13:08:48;;;;;;;8.98;2.10;;;;;;;;;;5058499;28;20040;-68
2023/09/13 13:11:15;;;;;;;6.28;1.63;;;;;;;;;;5058830;28;20032;-68
2023/09/13 13:13:41;;;;;;;12.10;2.22;;;;;;;;;;5056797;28;20118;-68
2023/09/13 13:16:14;;;;;;;9.57;2.15;;;;;;;;;;5059026;28;21023;-68
2023/09/13 13:18:41;;;;;;;;;;;;;;;;;;5058284;28;20029;-68
2023/09/13 13:21:07;;;;;;;7.03;1.83;;;;;;;;;;5060008;28;20687;-68
2023/09/13 13:23:33;;;;;;;5.97;1.45;;;;;;;;;;5058102;28;20446;-68
2023/09/13 13:26:00;;;;;;;11.55;2.10;;;;;;;;;;5058390;28;20071;-68
2023/09/13 13:28:26;;;;;;;8.80;1.60;;;;;;;;;;5057648;28;20032;-68
2023/09/13 13:30:56;;;;;;;6.97;1.67;;;;;;;;;;5057862;28;20047;-68
2023/09/13 13:33:22;;;;;;;8.10;1.75;;;;;;;;;;5054991;28;20444;-68
2023/09/13 13:35:49;;;;;;;10.30;2.08;;;;;;;;;;5057378;28;20075;-68
2023/09/13 13:38:15;;;;;;;9.00;2.00;;;;;;;;;;5057725;28;20048;-68
2023/09/13 13:40:41;;;;;;;14.13;2.15;;;;;;;;;;5058066;28;20047;-68
2023/09/13 13:43:07;;;;;;;9.45;1.80;;;;;;;;;;5056544;28;20043;-68
2023/09/13 13:45:34;;;;;;;8.63;1.77;;;;;;;;;;5057330;28;20051;-68
2023/09/13 13:48:00;;;;;;;8.60;1.77;;;;;;;;;;5053941;28;20036;-68
2023/09/13 13:50:27;;;;;;;7.15;2.00;;;;;;;;;;5055767;28;20031;-68
2023/09/13 13:52:53;;;;;;;9.68;1.85;;;;;;;;;;5056853;28;20079;-68
2023/09/13 13:55:19;;;;;;;8.25;1.88;;;;;;;;;;5057049;28;20031;-68
2023/09/13 13:57:45;;;;;;;8.98;2.05;;;;;;;;;;5056715;28;20111;-68
2023/09/13 14:00:11;;;;;;;9.82;1.92;;;;;;;;;;5057670;28;20032;-68
2023/09/13 14:02:37;;;;;;;9.18;2.03;;;;;;;;;;5056984;28;20201;-68
2023/09/13 14:05:04;;;;;;;10.07;2.45;;;;;;;;;;5057489;28;20167;-68
2023/09/13 14:07:30;;;;;;;7.55;2.00;;;;;;;;;;5056017;28;20939;-68
2023/09/13 14:09:56;;;;;;;6.75;1.85;;;;;;;;;;5052050;28;20947;-68
2023/09/13 14:12:22;;;;;;;7.78;1.70;;;;;;;;;;5051228;28;20444;-68
2023/09/13 14:14:48;;;;;;;10.90;2.20;;;;;;;;;;5056344;28;20062;-68
2023/09/13 14:17:14;;;;;;;5.88;1.58;;;;;;;;;;5056598;28;20032;-68
2023/09/13 14:19:40;;;;;;;7.68;1.73;;;;;;;;;;5056847;28;20029;-68
2023/09/13 14:22:08;;;;;;;10.30;2.20;;;;;;;;;;5055175;28;20025;-68
2023/09/13 14:24:34;;;;;;;9.60;2.42;;;;;;;;;;5056408;28;20030;-68
2023/09/13 14:27:00;;;;;;;8.82;1.75;;;;;;;;;;5054306;28;20037;-69
2023/09/13 14:29:26;;;;;;;11.00;1.90;;;;;;;;;;5056263;28;20764;-68
2023/09/13 14:31:56;;;;;;;10.88;1.60;;;;;;;;;;5055510;28;20491;-68
2023/09/13 14:34:23;;;;;;;8.10;1.60;;;;;;;;;;5055467;28;20038;-68
2023/09/13 14:36:49;;;;;;;8.82;2.05;;;;;;;;;;5055237;28;20520;-69
2023/09/13 14:39:15;;;;;;;9.00;1.83;;;;;;;;;;5054421;28;20032;-68
2023/09/13 14:41:42;;;;;;;6.90;1.73;;;;;;;;;;5052575;28;20024;-68